• Join FlightAware (Why Join?)
  • Login
  • US Flag 
11:04PM EST


 

Airport Tracker/Info


-or-


 

Live Flight TrackerFlight Track Log ✈ ASQ4219 ✈ 18-Jun-2013 ✈ KIAH - KSLC

Flight Track Log - Related Links

Times and Time Zones

All times are in EDT time to prevent confusion due to time zone crossing. See the ASQ4219 flight status page for this flight to view local times or setup timezone preferences in your user account.

Time Position Orientation Groundspeed Altitude Reporting Facility
EDT Latitude Longitude Course Direction KTS MPH feet Rate Location/Type
03:57PM 29.9508 -95.3400 276° West 174 200 700  Level Houston Center
03:58PM 29.9267 -95.3503 200° South 195 224 1,600 1,500 Climbing Houston Center
03:59PM 29.9297 -95.4061 274° West 236 272 3,000 1,740 Climbing Houston Center
04:00PM 29.9497 -95.4831 287° West 247 284 5,100 2,040 Climbing Houston Center
04:01PM 30.0360 -95.8314 276° West  Level FlightAware Approximate
04:01PM 29.9436 -95.5683 265° West 278 320 7,300  Level Houston Center
04:02PM 30.0464 -95.9566 276° West  Level FlightAware Approximate
04:02PM 29.9206 -95.6703 255° West 276 318 9,900  Level Houston Center
04:03PM 29.8972 -95.7583 253° West 285 328 11,700 1,440 Climbing Houston Center
04:04PM 29.9028 -95.8578 274° West 318 366 12,900 1,140 Climbing Houston Center
04:05PM 29.9236 -95.9650 283° West 342 394 14,100 1,260 Climbing Houston Center
04:06PM 29.9467 -96.0867 282° West 348 400 15,600 1,260 Climbing Houston Center
04:07PM 29.9681 -96.1994 282° West 359 413 16,800 960 Climbing Houston Center
04:08PM 29.9894 -96.3131 282° West 363 418 17,700 960 Climbing Houston Center
04:09PM 30.0108 -96.4311 282° West 374 430 18,800 1,080 Climbing Houston Center
04:10PM 30.0331 -96.5467 283° West 372 428 20,000 1,440 Climbing Houston Center
04:11PM 30.0592 -96.6853 282° West 370 426 21,800 1,560 Climbing Houston Center
04:12PM 30.0783 -96.7953 281° West 357 411 23,300 1,320 Climbing Houston Center
04:13PM 30.0989 -96.9036 282° West 349 402 24,600 1,140 Climbing Houston Center
04:14PM 30.1203 -97.0219 282° West 345 397 25,700 1,020 Climbing Houston Center
04:15PM 30.1411 -97.1344 282° West 351 404 26,800 1,020 Climbing Houston Center
04:16PM 30.1606 -97.2467 281° West 352 405 27,900 1,140 Climbing Houston Center
04:17PM 30.1814 -97.3586 282° West 351 404 29,200 1,260 Climbing Houston Center
04:18PM 30.1994 -97.4667 281° West 342 394 30,600 1,140 Climbing Houston Center
04:19PM 30.2186 -97.5731 282° West 336 387 31,600 960 Climbing Houston Center
04:20PM 30.2378 -97.6783 282° West 332 382 32,600 960 Climbing Houston Center
04:21PM 30.2592 -97.8017 281° West 329 379 33,700 900 Climbing Houston Center
04:22PM 30.2778 -97.9033 282° West 328 377 34,500 720 Climbing Houston Center
04:23PM 30.3025 -98.0128 285° West 328 377 35,300 660 Climbing Houston Center
04:24PM 30.3333 -98.1108 290° West 332 382 35,900 60 Climbing Houston Center
04:25PM 30.3672 -98.2142 291° West 340 391 35,500 -480 Descending Houston Center
04:27PM 30.4072 -98.3300 292° West 381 438 35,000 -300 Descending Houston Center
04:28PM 30.4814 -98.4339 310° West 409 471 35,000  Level Houston Center
04:29PM 30.5594 -98.5386 311° West 422 486 35,000  Level Houston Center
04:30PM 30.6392 -98.6461 311° West 431 496 35,000 180 Level Houston Center
04:31PM 30.7300 -98.7725 310° West 435 501 35,400 480 Climbing Houston Center
04:32PM 30.8078 -98.8772 311° West 431 496 36,000 240 Climbing Houston Center
04:33PM 30.8850 -98.9867 309° West 434 499 36,000  Level Houston Center
04:34PM 30.9636 -99.0919 311° West 430 495 36,000  Level Houston Center
04:35PM 31.0417 -99.2000 310° West 435 501 36,000  Level Houston Center
04:36PM 31.1175 -99.3050 310° West 425 489 36,000  Level Houston Center
04:37PM 31.1936 -99.4092 311° West 419 482 36,000  Level Houston Center
04:38PM 31.2700 -99.5156 310° West 423 487 36,000  Level Houston Center
04:39PM 31.3586 -99.6392 310° West 424 488 36,000  Level Houston Center
04:40PM 31.4339 -99.7458 310° West 423 487 36,000  Level Houston Center
04:41PM 31.5131 -99.8517 311° West 426 490 36,000  Level Houston Center
04:42PM 31.5881 -99.9556 310° West 424 488 36,000  Level Houston Center
04:43PM 31.6619 -100.0625 309° West 423 487 36,000  Level Houston Center
04:44PM 31.7375 -100.1692 310° West 425 489 36,000  Level Houston Center
04:45PM 31.8278 -100.2972 310° West 426 490 36,000  Level Houston Center
04:46PM 31.9036 -100.4047 310° West 427 491 36,000  Level Houston Center
04:47PM 31.9783 -100.5128 309° West 427 491 36,000  Level Houston Center
04:48PM 32.0497 -100.6183 309° West 419 482 36,000  Level Houston Center
04:50PM 32.1417 -100.7600 307° West 426 490 36,000  Level Fort Worth Center
04:51PM 32.2181 -100.8658 310° West 426 490 36,000  Level Fort Worth Center
04:52PM 32.2900 -100.9767 308° West 426 490 36,000  Level Fort Worth Center
04:53PM 32.3664 -101.0806 311° West 426 490 36,000  Level Fort Worth Center
04:54PM 32.4383 -101.1869 309° West 426 490 36,000  Level Fort Worth Center
04:55PM 32.5186 -101.2961 311° West 431 496 36,000  Level Fort Worth Center
04:56PM 32.5903 -101.4053 308° West 425 489 36,000  Level Fort Worth Center
04:57PM 32.6619 -101.5119 309° West 425 489 36,000  Level Fort Worth Center
04:58PM 32.7336 -101.6189 309° West 425 489 36,000  Level Fort Worth Center
04:59PM 32.8092 -101.7289 309° West 425 489 36,000  Level Fort Worth Center
05:00PM 32.8806 -101.8386 308° West 431 496 36,000  Level Fort Worth Center
05:01PM 32.9519 -101.9436 309° West 418 481 36,000  Level Fort Worth Center
05:02PM 33.0331 -102.0642 309° West 426 490 36,000  Level Fort Worth Center
05:03PM 33.1000 -102.1669 308° West 426 490 36,000  Level Fort Worth Center
05:04PM 33.1792 -102.2853 309° West 426 490 36,000  Level Fort Worth Center
05:05PM 33.2461 -102.3833 309° West 424 488 36,000  Level Fort Worth Center
05:06PM 33.3247 -102.5047 308° West 426 490 36,000  Level Fort Worth Center
05:07PM 33.3817 -102.5925 308° West 426 490 36,000  Level Fort Worth Center
05:08PM 33.4722 -102.7247 309° West 426 490 36,000  Level Fort Worth Center
05:09PM 33.5347 -102.8233 307° West 426 490 36,000  Level Fort Worth Center
05:10PM 33.6417 -102.9861 308° West 412 474 36,000  Level Albuquerque Center
05:11PM 33.7111 -103.0911 309° West 406 467 36,000  Level Albuquerque Center
05:12PM 33.7817 -103.1950 309° West 403 464 36,000  Level Albuquerque Center
05:13PM 33.8503 -103.3047 307° West 408 470 36,000  Level Albuquerque Center
05:14PM 33.9325 -103.4336 308° West 406 467 36,000  Level Albuquerque Center
05:15PM 34.0003 -103.5417 307° West 404 465 36,000  Level Albuquerque Center
05:16PM 34.0686 -103.6478 308° West 403 464 36,000  Level Albuquerque Center
05:17PM 34.1342 -103.7489 308° West 401 461 36,000  Level Albuquerque Center
05:18PM 34.2158 -103.8753 308° West 403 464 36,000  Level Albuquerque Center
05:19PM 34.2844 -103.9847 307° West 402 463 36,000  Level Albuquerque Center
05:20PM 34.3536 -104.0931 308° West 403 464 36,000  Level Albuquerque Center
05:21PM 34.4222 -104.2022 307° West 402 463 36,000  Level Albuquerque Center
05:22PM 34.4903 -104.3119 307° West 401 461 36,000  Level Albuquerque Center
05:23PM 34.5594 -104.4200 308° West 399 459 36,000  Level Albuquerque Center
05:24PM 34.6272 -104.5289 307° West 398 458 36,000  Level Albuquerque Center
05:25PM 34.6953 -104.6394 307° West 402 463 36,000  Level Albuquerque Center
05:26PM 34.7639 -104.7483 308° West 401 461 36,000  Level Albuquerque Center
05:27PM 34.8319 -104.8586 307° West 402 463 36,000  Level Albuquerque Center
05:29PM 34.8997 -104.9678 307° West 401 461 36,000  Level Albuquerque Center
05:30PM 34.9672 -105.0775 307° West 401 461 36,000  Level Albuquerque Center
05:31PM 35.0461 -105.2075 307° West 402 463 36,000  Level Albuquerque Center
05:32PM 35.1150 -105.3194 307° West 405 466 36,000  Level Albuquerque Center
05:33PM 35.1831 -105.4300 307° West 405 466 36,000  Level Albuquerque Center
05:34PM 35.2511 -105.5425 307° West 406 467 36,000  Level Albuquerque Center
05:35PM 35.3194 -105.6550 307° West 408 470 36,000  Level Albuquerque Center
05:36PM 35.3875 -105.7669 307° West 406 467 36,000  Level Albuquerque Center
05:37PM 35.4581 -105.8811 307° West 408 470 36,000  Level Albuquerque Center
05:38PM 35.5231 -105.9906 306° West 402 463 36,000  Level Albuquerque Center
05:39PM 35.5897 -106.1014 307° West 403 464 36,000  Level Albuquerque Center
05:40PM 35.6600 -106.2194 306° West 402 463 36,000  Level Albuquerque Center
05:41PM 35.7344 -106.3425 307° West 402 463 36,000  Level Albuquerque Center
05:42PM 35.7964 -106.4489 306° West 400 460 36,000  Level Albuquerque Center
05:43PM 35.8594 -106.5542 306° West 399 459 36,000  Level Albuquerque Center
05:44PM 35.9286 -106.6736 306° West 398 458 36,000  Level Albuquerque Center
05:45PM 35.9944 -106.7844 306° West 400 460 36,000  Level Albuquerque Center
05:46PM 36.0603 -106.8967 306° West 403 464 36,000  Level Albuquerque Center
05:47PM 36.1253 -107.0083 306° West 402 463 36,000  Level Albuquerque Center
05:48PM 36.2014 -107.1403 306° West 397 457 36,000  Level Albuquerque Center
05:49PM 36.2622 -107.2450 306° West 393 452 36,000  Level Albuquerque Center
05:50PM 36.3344 -107.3694 306° West 396 456 36,000  Level Albuquerque Center
05:51PM 36.3953 -107.4775 305° West 399 459 36,000  Level Albuquerque Center
05:52PM 36.4583 -107.5839 306° West 400 460 36,000  Level Albuquerque Center
05:53PM 36.4758 -107.6186 302° West 394 453 36,000  Level Denver Center
05:54PM 36.6025 -107.7983 311° West 397 457 36,000  Level Albuquerque Center
05:55PM 36.6483 -107.8275 333° Northwest 399 459 36,000  Level Denver Center
05:56PM 36.7583 -107.9000 332° Northwest 402 463 36,000  Level Denver Center
05:57PM 36.8386 -107.9544 332° Northwest 410 472 36,000  Level Denver Center
05:58PM 36.9692 -108.0408 332° Northwest 416 479 36,000  Level Denver Center
05:59PM 37.0636 -108.1036 332° Northwest 404 465 36,000  Level Denver Center
06:00PM 37.1761 -108.1792 332° Northwest 409 471 36,000  Level Denver Center
06:01PM 37.2700 -108.2422 332° Northwest 403 464 36,000  Level Denver Center
06:02PM 37.3811 -108.3192 331° Northwest 405 466 36,000  Level Denver Center
06:03PM 37.4753 -108.3831 332° Northwest 402 463 36,000  Level Denver Center
06:04PM 37.5869 -108.4572 332° Northwest 404 465 36,000  Level Denver Center
06:05PM 37.6825 -108.5222 332° Northwest 406 467 36,000  Level Denver Center
06:06PM 37.7961 -108.6019 331° Northwest 416 479 36,000  Level Denver Center
06:07PM 37.8953 -108.6689 332° Northwest 419 482 36,000  Level Denver Center
06:08PM 38.0108 -108.7517 331° Northwest 424 488 36,000  Level Denver Center
06:09PM 38.1039 -108.8131 333° Northwest 419 482 36,000  Level Denver Center
06:10PM 38.2194 -108.8933 331° Northwest 422 486 36,000  Level Denver Center
06:11PM 38.3150 -108.9600 331° Northwest 412 474 36,000  Level Denver Center
06:12PM 38.4275 -109.0369 332° Northwest 409 471 36,000  Level Denver Center
06:13PM 38.5253 -109.1058 331° Northwest 418 481 36,000  Level Denver Center
06:14PM 38.6411 -109.1875 331° Northwest 424 488 36,000  Level Denver Center
06:15PM 38.7414 -109.2575 331° Northwest 426 490 36,000  Level Denver Center
06:16PM 38.8411 -109.3306 330° Northwest 429 494 36,000  Level Denver Center
06:18PM 38.9592 -109.4133 331° Northwest 431 496 36,000  Level Denver Center
06:19PM 39.0925 -109.5089 331° Northwest 429 494 36,000 -180 Level Denver Center
06:20PM 39.1931 -109.5806 331° Northwest 427 491 35,700 -1,260 Descending Salt Lake Center
06:21PM 39.2922 -109.6522 331° Northwest 425 489 33,800 -1,680 Descending Salt Lake Center
06:22PM 39.3950 -109.7258 331° Northwest 435 501 32,300 -900 Descending Salt Lake Center
06:23PM 39.4806 -109.8500 312° West 418 481 32,000 -180 Descending Salt Lake Center
06:24PM 39.5319 -109.9778 298° West 418 481 32,000  Level Salt Lake Center
06:25PM 39.5919 -110.1322 297° West 428 493 32,000  Level Salt Lake Center
06:26PM 39.6436 -110.2650 297° West 430 495 32,000  Level Salt Lake Center
06:27PM 39.6956 -110.3964 297° West 428 493 32,000  Level Salt Lake Center
06:28PM 39.7556 -110.5536 296° West 434 499 32,000  Level Salt Lake Center
06:29PM 39.8064 -110.6869 296° West 430 495 32,000 -660 Level Salt Lake Center
06:30PM 39.8647 -110.8431 296° West 429 494 30,700 -1,860 Descending Salt Lake Center
06:31PM 39.9167 -110.9761 297° West 430 495 28,200 -2,640 Descending Salt Lake Center
06:32PM 39.9753 -111.1319 296° West 429 494 25,300 -2,640 Descending Salt Lake Center
06:33PM 40.0253 -111.2661 296° West 429 494 22,900 -2,280 Descending Salt Lake Center
06:34PM 40.0722 -111.3936 296° West 428 493 20,600 -1,860 Descending Salt Lake Center
06:35PM 40.1314 -111.5528 296° West 401 461 19,100 -840 Descending Salt Lake Center
06:36PM 40.1797 -111.6853 296° West 402 463 19,000 -540 Descending Salt Lake Center
06:37PM 40.2297 -111.8206 296° West 405 466 18,000 -960 Descending Salt Lake Center
06:38PM 40.2792 -111.9364 299° West 372 428 17,100 -1,080 Descending Salt Lake Center
06:39PM 40.3692 -112.0119 327° Northwest 387 445 15,900 -1,080 Descending Salt Lake Center
06:40PM 40.4636 -112.0547 341° North 357 411 14,900 -1,560 Descending Salt Lake Center
06:41PM 40.5594 -112.0678 354° North 345 397 12,700 -2,520 Descending Salt Lake Center
06:42PM 40.6242 -112.0808 351° North 333 383 11,000 -1,320 Descending Salt Lake Center
06:43PM 40.6925 -112.0889 355° North 317 365 10,900 60 Descending Salt Lake Center
06:43PM 40.7461 -112.0906 359° North 275 316 11,100  Climbing Salt Lake Center
06:44PM 40.8219 -112.0997 355° North 272 313 10,900 -900 Descending Salt Lake Center
06:45PM 40.8944 -112.1089 355° North 261 300 9,300 -1,620 Descending Salt Lake Center
06:46PM 40.9397 -112.1100 359° North 263 303 8,300 -1,440 Descending Salt Lake Center
06:47PM 40.9592 -112.0325 72° East 244 281 7,000 -1,140 Descending Salt Lake Center
06:48PM 40.9186 -112.0122 159° South 211 243 6,300 -900 Descending Salt Lake Center